sensor_id;sensor_type;location;lat;lon;timestamp;P1;durP1;ratioP1;P2;durP2;ratioP2
15776;SDS011;7989;51.198;6.676;2022-11-15T00:00:34;8.57;;;7.78;;
15776;SDS011;7989;51.198;6.676;2022-11-15T00:03:01;9.43;;;8.63;;
15776;SDS011;7989;51.198;6.676;2022-11-15T00:05:29;9.73;;;8.73;;
15776;SDS011;7989;51.198;6.676;2022-11-15T00:08:01;9.05;;;8.25;;
15776;SDS011;7989;51.198;6.676;2022-11-15T00:10:27;8.38;;;7.63;;
15776;SDS011;7989;51.198;6.676;2022-11-15T00:12:54;8.90;;;8.00;;
15776;SDS011;7989;51.198;6.676;2022-11-15T00:15:21;9.00;;;8.10;;
15776;SDS011;7989;51.198;6.676;2022-11-15T00:17:48;9.50;;;8.60;;
15776;SDS011;7989;51.198;6.676;2022-11-15T00:20:15;9.55;;;8.30;;
15776;SDS011;7989;51.198;6.676;2022-11-15T00:22:44;8.75;;;7.88;;
15776;SDS011;7989;51.198;6.676;2022-11-15T00:25:11;8.80;;;8.00;;
15776;SDS011;7989;51.198;6.676;2022-11-15T00:27:37;9.80;;;8.80;;
15776;SDS011;7989;51.198;6.676;2022-11-15T00:30:05;8.75;;;7.90;;
15776;SDS011;7989;51.198;6.676;2022-11-15T00:32:32;10.70;;;8.23;;
15776;SDS011;7989;51.198;6.676;2022-11-15T00:34:59;8.68;;;7.88;;
15776;SDS011;7989;51.198;6.676;2022-11-15T00:37:26;9.05;;;7.70;;
15776;SDS011;7989;51.198;6.676;2022-11-15T00:39:54;9.70;;;7.88;;
15776;SDS011;7989;51.198;6.676;2022-11-15T00:42:20;8.15;;;7.45;;
15776;SDS011;7989;51.198;6.676;2022-11-15T00:44:47;12.07;;;8.35;;
15776;SDS011;7989;51.198;6.676;2022-11-15T00:47:14;9.45;;;8.35;;
15776;SDS011;7989;51.198;6.676;2022-11-15T00:49:41;8.60;;;7.80;;
15776;SDS011;7989;51.198;6.676;2022-11-15T00:52:08;8.75;;;7.85;;
15776;SDS011;7989;51.198;6.676;2022-11-15T00:54:34;8.98;;;8.13;;
15776;SDS011;7989;51.198;6.676;2022-11-15T00:57:03;8.68;;;7.88;;
15776;SDS011;7989;51.198;6.676;2022-11-15T00:59:29;7.93;;;7.13;;
15776;SDS011;7989;51.198;6.676;2022-11-15T01:01:56;8.52;;;7.75;;
15776;SDS011;7989;51.198;6.676;2022-11-15T01:04:23;8.68;;;7.65;;
15776;SDS011;7989;51.198;6.676;2022-11-15T01:06:50;8.13;;;7.20;;
15776;SDS011;7989;51.198;6.676;2022-11-15T01:09:16;8.73;;;7.72;;
15776;SDS011;7989;51.198;6.676;2022-11-15T01:11:43;8.93;;;8.13;;
15776;SDS011;7989;51.198;6.676;2022-11-15T01:14:11;8.60;;;7.63;;
15776;SDS011;7989;51.198;6.676;2022-11-15T01:16:38;9.18;;;8.35;;
15776;SDS011;7989;51.198;6.676;2022-11-15T01:19:05;8.35;;;7.65;;
15776;SDS011;7989;51.198;6.676;2022-11-15T01:21:32;9.00;;;8.10;;
15776;SDS011;7989;51.198;6.676;2022-11-15T01:23:59;8.85;;;7.95;;
15776;SDS011;7989;51.198;6.676;2022-11-15T01:26:26;8.48;;;7.68;;
15776;SDS011;7989;51.198;6.676;2022-11-15T01:28:53;9.18;;;8.25;;
15776;SDS011;7989;51.198;6.676;2022-11-15T01:31:21;7.65;;;6.85;;
15776;SDS011;7989;51.198;6.676;2022-11-15T01:33:48;7.72;;;7.03;;
15776;SDS011;7989;51.198;6.676;2022-11-15T01:36:17;8.38;;;7.20;;
15776;SDS011;7989;51.198;6.676;2022-11-15T01:38:46;8.40;;;7.63;;
15776;SDS011;7989;51.198;6.676;2022-11-15T01:41:20;7.90;;;7.15;;
15776;SDS011;7989;51.198;6.676;2022-11-15T01:43:48;8.52;;;7.72;;
15776;SDS011;7989;51.198;6.676;2022-11-15T01:46:22;9.48;;;7.57;;
15776;SDS011;7989;51.198;6.676;2022-11-15T01:48:55;7.88;;;7.00;;
15776;SDS011;7989;51.198;6.676;2022-11-15T01:51:27;8.00;;;7.40;;
15776;SDS011;7989;51.198;6.676;2022-11-15T01:53:59;8.48;;;7.20;;
15776;SDS011;7989;51.198;6.676;2022-11-15T01:56:30;11.35;;;7.10;;
15776;SDS011;7989;51.198;6.676;2022-11-15T01:59:03;7.95;;;7.20;;
15776;SDS011;7989;51.198;6.676;2022-11-15T02:01:34;8.75;;;7.95;;
15776;SDS011;7989;51.198;6.676;2022-11-15T02:04:01;7.30;;;6.60;;
15776;SDS011;7989;51.198;6.676;2022-11-15T02:06:34;7.90;;;7.03;;
15776;SDS011;7989;51.198;6.676;2022-11-15T02:09:02;8.13;;;6.72;;
15776;SDS011;7989;51.198;6.676;2022-11-15T02:11:29;8.27;;;7.47;;
15776;SDS011;7989;51.198;6.676;2022-11-15T02:13:56;8.52;;;7.63;;
15776;SDS011;7989;51.198;6.676;2022-11-15T02:16:27;9.80;;;7.55;;
15776;SDS011;7989;51.198;6.676;2022-11-15T02:19:07;10.23;;;7.53;;
15776;SDS011;7989;51.198;6.676;2022-11-15T02:21:49;7.93;;;6.85;;
15776;SDS011;7989;51.198;6.676;2022-11-15T02:27:37;9.85;;;7.03;;
15776;SDS011;7989;51.198;6.676;2022-11-15T02:30:27;11.15;;;7.28;;
15776;SDS011;7989;51.198;6.676;2022-11-15T02:33:00;8.52;;;7.30;;
15776;SDS011;7989;51.198;6.676;2022-11-15T02:35:34;8.77;;;6.82;;
15776;SDS011;7989;51.198;6.676;2022-11-15T02:38:08;8.63;;;6.88;;
15776;SDS011;7989;51.198;6.676;2022-11-15T02:40:44;10.15;;;7.25;;
15776;SDS011;7989;51.198;6.676;2022-11-15T02:43:16;7.80;;;7.10;;
15776;SDS011;7989;51.198;6.676;2022-11-15T02:46:07;7.93;;;6.70;;
15776;SDS011;7989;51.198;6.676;2022-11-15T02:48:38;10.48;;;7.47;;
15776;SDS011;7989;51.198;6.676;2022-11-15T02:51:07;8.10;;;7.30;;
15776;SDS011;7989;51.198;6.676;2022-11-15T02:53:34;7.45;;;6.65;;
15776;SDS011;7989;51.198;6.676;2022-11-15T02:56:01;8.43;;;6.93;;
15776;SDS011;7989;51.198;6.676;2022-11-15T02:58:40;7.85;;;7.13;;
15776;SDS011;7989;51.198;6.676;2022-11-15T03:01:22;7.57;;;6.88;;
15776;SDS011;7989;51.198;6.676;2022-11-15T03:03:59;8.40;;;6.97;;
15776;SDS011;7989;51.198;6.676;2022-11-15T03:06:38;11.18;;;7.50;;
15776;SDS011;7989;51.198;6.676;2022-11-15T03:09:11;9.95;;;7.55;;
15776;SDS011;7989;51.198;6.676;2022-11-15T03:11:46;13.07;;;7.57;;
15776;SDS011;7989;51.198;6.676;2022-11-15T03:14:18;8.18;;;7.38;;
15776;SDS011;7989;51.198;6.676;2022-11-15T03:16:54;8.52;;;7.70;;
15776;SDS011;7989;51.198;6.676;2022-11-15T03:19:28;8.15;;;7.40;;
15776;SDS011;7989;51.198;6.676;2022-11-15T03:21:58;9.35;;;7.18;;
15776;SDS011;7989;51.198;6.676;2022-11-15T03:24:28;7.93;;;7.10;;
15776;SDS011;7989;51.198;6.676;2022-11-15T03:26:57;8.32;;;7.53;;
15776;SDS011;7989;51.198;6.676;2022-11-15T03:29:27;8.68;;;7.75;;
15776;SDS011;7989;51.198;6.676;2022-11-15T03:32:00;8.88;;;7.10;;
15776;SDS011;7989;51.198;6.676;2022-11-15T03:34:31;8.40;;;7.22;;
15776;SDS011;7989;51.198;6.676;2022-11-15T03:37:02;6.90;;;6.30;;
15776;SDS011;7989;51.198;6.676;2022-11-15T03:39:30;7.32;;;6.72;;
15776;SDS011;7989;51.198;6.676;2022-11-15T03:42:01;9.85;;;6.47;;
15776;SDS011;7989;51.198;6.676;2022-11-15T03:44:40;7.22;;;6.43;;
15776;SDS011;7989;51.198;6.676;2022-11-15T03:47:15;7.80;;;7.15;;
15776;SDS011;7989;51.198;6.676;2022-11-15T03:49:46;7.57;;;6.35;;
15776;SDS011;7989;51.198;6.676;2022-11-15T03:52:17;6.80;;;6.05;;
15776;SDS011;7989;51.198;6.676;2022-11-15T03:54:49;9.50;;;6.93;;
15776;SDS011;7989;51.198;6.676;2022-11-15T03:57:17;7.95;;;6.85;;
15776;SDS011;7989;51.198;6.676;2022-11-15T03:59:44;7.10;;;6.50;;
15776;SDS011;7989;51.198;6.676;2022-11-15T04:02:10;7.60;;;6.90;;
15776;SDS011;7989;51.198;6.676;2022-11-15T04:04:39;7.38;;;6.68;;
15776;SDS011;7989;51.198;6.676;2022-11-15T04:07:06;7.90;;;7.15;;
15776;SDS011;7989;51.198;6.676;2022-11-15T04:09:32;7.60;;;6.90;;
15776;SDS011;7989;51.198;6.676;2022-11-15T04:12:19;8.18;;;6.57;;
15776;SDS011;7989;51.198;6.676;2022-11-15T04:14:55;8.07;;;6.45;;
15776;SDS011;7989;51.198;6.676;2022-11-15T04:17:33;9.63;;;6.80;;
15776;SDS011;7989;51.198;6.676;2022-11-15T04:20:02;8.48;;;6.75;;
15776;SDS011;7989;51.198;6.676;2022-11-15T04:22:47;7.30;;;6.38;;
15776;SDS011;7989;51.198;6.676;2022-11-15T04:25:31;6.75;;;6.20;;
15776;SDS011;7989;51.198;6.676;2022-11-15T04:27:57;8.18;;;7.10;;
15776;SDS011;7989;51.198;6.676;2022-11-15T04:30:24;7.15;;;6.45;;
15776;SDS011;7989;51.198;6.676;2022-11-15T04:32:51;7.45;;;6.72;;
15776;SDS011;7989;51.198;6.676;2022-11-15T04:35:19;7.82;;;7.13;;
15776;SDS011;7989;51.198;6.676;2022-11-15T04:37:46;6.97;;;6.28;;
15776;SDS011;7989;51.198;6.676;2022-11-15T04:40:12;6.97;;;6.43;;
15776;SDS011;7989;51.198;6.676;2022-11-15T04:42:40;6.90;;;5.85;;
15776;SDS011;7989;51.198;6.676;2022-11-15T04:45:07;8.20;;;6.30;;
15776;SDS011;7989;51.198;6.676;2022-11-15T04:47:35;6.68;;;6.13;;
15776;SDS011;7989;51.198;6.676;2022-11-15T04:50:02;6.88;;;6.28;;
15776;SDS011;7989;51.198;6.676;2022-11-15T04:52:31;7.28;;;6.32;;
15776;SDS011;7989;51.198;6.676;2022-11-15T04:54:58;7.50;;;6.80;;
15776;SDS011;7989;51.198;6.676;2022-11-15T04:57:24;6.90;;;6.20;;
15776;SDS011;7989;51.198;6.676;2022-11-15T04:59:51;6.65;;;5.97;;
15776;SDS011;7989;51.198;6.676;2022-11-15T05:02:18;7.13;;;6.50;;
15776;SDS011;7989;51.198;6.676;2022-11-15T05:04:45;7.13;;;6.47;;
15776;SDS011;7989;51.198;6.676;2022-11-15T05:07:11;6.30;;;5.72;;
15776;SDS011;7989;51.198;6.676;2022-11-15T05:09:39;7.05;;;6.35;;
15776;SDS011;7989;51.198;6.676;2022-11-15T05:12:05;7.95;;;6.38;;
15776;SDS011;7989;51.198;6.676;2022-11-15T05:14:32;7.10;;;6.38;;
15776;SDS011;7989;51.198;6.676;2022-11-15T05:16:59;6.45;;;5.90;;
15776;SDS011;7989;51.198;6.676;2022-11-15T05:19:26;6.50;;;5.90;;
15776;SDS011;7989;51.198;6.676;2022-11-15T05:21:53;7.38;;;6.68;;
15776;SDS011;7989;51.198;6.676;2022-11-15T05:24:20;7.15;;;6.50;;
15776;SDS011;7989;51.198;6.676;2022-11-15T05:26:48;6.60;;;6.00;;
15776;SDS011;7989;51.198;6.676;2022-11-15T05:29:15;7.10;;;6.40;;
15776;SDS011;7989;51.198;6.676;2022-11-15T05:31:41;6.97;;;6.30;;
15776;SDS011;7989;51.198;6.676;2022-11-15T05:34:08;7.78;;;6.97;;
15776;SDS011;7989;51.198;6.676;2022-11-15T05:36:36;6.97;;;6.32;;
15776;SDS011;7989;51.198;6.676;2022-11-15T05:39:05;7.28;;;6.68;;
15776;SDS011;7989;51.198;6.676;2022-11-15T05:41:33;7.40;;;6.55;;
15776;SDS011;7989;51.198;6.676;2022-11-15T05:44:05;7.38;;;6.68;;
15776;SDS011;7989;51.198;6.676;2022-11-15T05:46:34;6.38;;;5.80;;
15776;SDS011;7989;51.198;6.676;2022-11-15T05:49:03;7.22;;;5.75;;
15776;SDS011;7989;51.198;6.676;2022-11-15T05:51:33;7.72;;;6.97;;
15776;SDS011;7989;51.198;6.676;2022-11-15T05:54:00;6.47;;;5.88;;
15776;SDS011;7989;51.198;6.676;2022-11-15T05:56:28;6.75;;;6.15;;
15776;SDS011;7989;51.198;6.676;2022-11-15T05:58:55;6.30;;;5.70;;
15776;SDS011;7989;51.198;6.676;2022-11-15T06:01:25;6.78;;;6.18;;
15776;SDS011;7989;51.198;6.676;2022-11-15T06:03:53;6.95;;;6.35;;
15776;SDS011;7989;51.198;6.676;2022-11-15T06:06:20;6.70;;;5.88;;
15776;SDS011;7989;51.198;6.676;2022-11-15T06:08:46;6.60;;;6.00;;
15776;SDS011;7989;51.198;6.676;2022-11-15T06:11:13;7.60;;;6.70;;
15776;SDS011;7989;51.198;6.676;2022-11-15T06:13:40;6.15;;;5.65;;
15776;SDS011;7989;51.198;6.676;2022-11-15T06:16:07;5.70;;;5.28;;
15776;SDS011;7989;51.198;6.676;2022-11-15T06:18:35;7.00;;;6.30;;
15776;SDS011;7989;51.198;6.676;2022-11-15T06:21:03;6.55;;;6.03;;
15776;SDS011;7989;51.198;6.676;2022-11-15T06:23:31;7.80;;;5.40;;
15776;SDS011;7989;51.198;6.676;2022-11-15T06:25:59;5.82;;;5.32;;
15776;SDS011;7989;51.198;6.676;2022-11-15T06:28:27;6.80;;;6.15;;
15776;SDS011;7989;51.198;6.676;2022-11-15T06:30:55;6.30;;;5.82;;
15776;SDS011;7989;51.198;6.676;2022-11-15T06:33:22;6.50;;;5.88;;
15776;SDS011;7989;51.198;6.676;2022-11-15T06:35:50;6.25;;;5.47;;
15776;SDS011;7989;51.198;6.676;2022-11-15T06:38:17;10.65;;;6.55;;
15776;SDS011;7989;51.198;6.676;2022-11-15T06:40:44;6.38;;;5.72;;
15776;SDS011;7989;51.198;6.676;2022-11-15T06:43:10;9.45;;;7.50;;
15776;SDS011;7989;51.198;6.676;2022-11-15T06:45:37;6.70;;;5.97;;
15776;SDS011;7989;51.198;6.676;2022-11-15T06:48:05;5.20;;;4.80;;
15776;SDS011;7989;51.198;6.676;2022-11-15T06:50:32;6.80;;;5.38;;
15776;SDS011;7989;51.198;6.676;2022-11-15T06:53:03;5.38;;;4.85;;
15776;SDS011;7989;51.198;6.676;2022-11-15T06:55:30;4.50;;;4.05;;
15776;SDS011;7989;51.198;6.676;2022-11-15T06:57:57;4.57;;;4.18;;
15776;SDS011;7989;51.198;6.676;2022-11-15T07:00:23;5.72;;;4.07;;
15776;SDS011;7989;51.198;6.676;2022-11-15T07:02:50;4.10;;;3.80;;
15776;SDS011;7989;51.198;6.676;2022-11-15T07:05:17;3.58;;;3.28;;
15776;SDS011;7989;51.198;6.676;2022-11-15T07:07:50;4.30;;;3.85;;
15776;SDS011;7989;51.198;6.676;2022-11-15T07:10:19;3.58;;;3.28;;
15776;SDS011;7989;51.198;6.676;2022-11-15T07:12:47;4.55;;;2.92;;
15776;SDS011;7989;51.198;6.676;2022-11-15T07:15:14;3.95;;;3.55;;
15776;SDS011;7989;51.198;6.676;2022-11-15T07:17:41;3.45;;;3.15;;
15776;SDS011;7989;51.198;6.676;2022-11-15T07:20:09;4.00;;;3.17;;
15776;SDS011;7989;51.198;6.676;2022-11-15T07:22:36;2.80;;;2.60;;
15776;SDS011;7989;51.198;6.676;2022-11-15T07:25:03;3.35;;;3.05;;
15776;SDS011;7989;51.198;6.676;2022-11-15T07:27:32;4.03;;;3.72;;
15776;SDS011;7989;51.198;6.676;2022-11-15T07:29:59;5.80;;;3.35;;
15776;SDS011;7989;51.198;6.676;2022-11-15T07:32:26;3.88;;;3.58;;
15776;SDS011;7989;51.198;6.676;2022-11-15T07:34:52;3.85;;;3.55;;
15776;SDS011;7989;51.198;6.676;2022-11-15T07:37:19;4.00;;;3.70;;
15776;SDS011;7989;51.198;6.676;2022-11-15T07:39:46;3.50;;;3.00;;
15776;SDS011;7989;51.198;6.676;2022-11-15T07:42:13;3.92;;;3.63;;
15776;SDS011;7989;51.198;6.676;2022-11-15T07:44:59;3.00;;;2.80;;
15776;SDS011;7989;51.198;6.676;2022-11-15T07:47:27;3.20;;;3.00;;
15776;SDS011;7989;51.198;6.676;2022-11-15T07:49:55;3.33;;;3.00;;
15776;SDS011;7989;51.198;6.676;2022-11-15T07:52:22;3.15;;;2.85;;
15776;SDS011;7989;51.198;6.676;2022-11-15T07:54:48;6.57;;;4.28;;
15776;SDS011;7989;51.198;6.676;2022-11-15T07:57:15;3.47;;;2.80;;
15776;SDS011;7989;51.198;6.676;2022-11-15T07:59:42;4.65;;;3.90;;
15776;SDS011;7989;51.198;6.676;2022-11-15T08:02:10;3.90;;;2.67;;
15776;SDS011;7989;51.198;6.676;2022-11-15T08:04:37;3.63;;;2.90;;
15776;SDS011;7989;51.198;6.676;2022-11-15T08:07:04;3.30;;;2.67;;
15776;SDS011;7989;51.198;6.676;2022-11-15T08:09:31;2.70;;;2.50;;
15776;SDS011;7989;51.198;6.676;2022-11-15T08:11:57;3.17;;;2.42;;
15776;SDS011;7989;51.198;6.676;2022-11-15T08:14:24;2.95;;;2.65;;
15776;SDS011;7989;51.198;6.676;2022-11-15T08:16:51;3.03;;;2.38;;
15776;SDS011;7989;51.198;6.676;2022-11-15T08:19:19;4.75;;;2.80;;
15776;SDS011;7989;51.198;6.676;2022-11-15T08:21:46;4.05;;;2.85;;
15776;SDS011;7989;51.198;6.676;2022-11-15T08:24:13;7.53;;;5.20;;
15776;SDS011;7989;51.198;6.676;2022-11-15T08:26:40;7.07;;;6.35;;
15776;SDS011;7989;51.198;6.676;2022-11-15T08:29:07;5.38;;;4.88;;
15776;SDS011;7989;51.198;6.676;2022-11-15T08:31:34;5.13;;;4.15;;
15776;SDS011;7989;51.198;6.676;2022-11-15T08:34:02;5.50;;;3.47;;
15776;SDS011;7989;51.198;6.676;2022-11-15T08:36:30;7.32;;;5.07;;
15776;SDS011;7989;51.198;6.676;2022-11-15T08:38:57;7.50;;;6.53;;
15776;SDS011;7989;51.198;6.676;2022-11-15T08:41:25;3.65;;;2.80;;
15776;SDS011;7989;51.198;6.676;2022-11-15T08:43:56;3.75;;;2.72;;
15776;SDS011;7989;51.198;6.676;2022-11-15T08:46:23;3.85;;;2.38;;
15776;SDS011;7989;51.198;6.676;2022-11-15T08:48:50;2.88;;;2.67;;
15776;SDS011;7989;51.198;6.676;2022-11-15T08:51:16;3.15;;;2.88;;
15776;SDS011;7989;51.198;6.676;2022-11-15T08:53:45;2.88;;;2.40;;
15776;SDS011;7989;51.198;6.676;2022-11-15T08:56:12;4.03;;;2.78;;
15776;SDS011;7989;51.198;6.676;2022-11-15T08:58:40;21.70;;;5.03;;
15776;SDS011;7989;51.198;6.676;2022-11-15T09:01:13;11.45;;;3.90;;
15776;SDS011;7989;51.198;6.676;2022-11-15T09:03:41;20.67;;;6.20;;
15776;SDS011;7989;51.198;6.676;2022-11-15T09:06:08;24.15;;;4.75;;
15776;SDS011;7989;51.198;6.676;2022-11-15T09:08:35;15.10;;;3.35;;
15776;SDS011;7989;51.198;6.676;2022-11-15T09:11:04;17.27;;;3.85;;
15776;SDS011;7989;51.198;6.676;2022-11-15T09:13:31;24.35;;;6.85;;
15776;SDS011;7989;51.198;6.676;2022-11-15T09:15:58;17.10;;;4.90;;
15776;SDS011;7989;51.198;6.676;2022-11-15T09:18:25;13.82;;;4.13;;
15776;SDS011;7989;51.198;6.676;2022-11-15T09:20:54;8.57;;;3.03;;
15776;SDS011;7989;51.198;6.676;2022-11-15T09:23:22;4.90;;;2.30;;
15776;SDS011;7989;51.198;6.676;2022-11-15T09:25:49;4.10;;;2.20;;
15776;SDS011;7989;51.198;6.676;2022-11-15T09:28:18;2.53;;;1.88;;
15776;SDS011;7989;51.198;6.676;2022-11-15T09:30:45;1.40;;;1.30;;
15776;SDS011;7989;51.198;6.676;2022-11-15T09:33:12;1.33;;;1.23;;
15776;SDS011;7989;51.198;6.676;2022-11-15T09:35:39;1.75;;;1.35;;
15776;SDS011;7989;51.198;6.676;2022-11-15T09:38:06;3.08;;;1.58;;
15776;SDS011;7989;51.198;6.676;2022-11-15T09:40:35;2.90;;;1.45;;
15776;SDS011;7989;51.198;6.676;2022-11-15T09:43:10;3.63;;;1.48;;
15776;SDS011;7989;51.198;6.676;2022-11-15T09:46:01;10.43;;;2.78;;
15776;SDS011;7989;51.198;6.676;2022-11-15T09:51:28;2.95;;;1.80;;
15776;SDS011;7989;51.198;6.676;2022-11-15T09:54:02;1.67;;;1.10;;
15776;SDS011;7989;51.198;6.676;2022-11-15T09:56:32;2.97;;;1.77;;
15776;SDS011;7989;51.198;6.676;2022-11-15T09:59:15;6.60;;;2.17;;
15776;SDS011;7989;51.198;6.676;2022-11-15T10:01:52;7.38;;;2.25;;
15776;SDS011;7989;51.198;6.676;2022-11-15T10:04:29;23.33;;;4.50;;
15776;SDS011;7989;51.198;6.676;2022-11-15T10:06:58;5.43;;;2.50;;
15776;SDS011;7989;51.198;6.676;2022-11-15T10:09:30;6.43;;;1.98;;
15776;SDS011;7989;51.198;6.676;2022-11-15T10:12:03;3.75;;;1.98;;
15776;SDS011;7989;51.198;6.676;2022-11-15T10:14:31;3.20;;;1.48;;
15776;SDS011;7989;51.198;6.676;2022-11-15T10:19:56;3.20;;;1.20;;
15776;SDS011;7989;51.198;6.676;2022-11-15T10:22:35;1.75;;;1.10;;
15776;SDS011;7989;51.198;6.676;2022-11-15T10:25:18;3.00;;;1.60;;
15776;SDS011;7989;51.198;6.676;2022-11-15T10:27:50;2.22;;;1.10;;
15776;SDS011;7989;51.198;6.676;2022-11-15T10:30:21;2.70;;;1.17;;
15776;SDS011;7989;51.198;6.676;2022-11-15T10:32:49;3.85;;;1.23;;
15776;SDS011;7989;51.198;6.676;2022-11-15T10:35:17;2.33;;;1.30;;
15776;SDS011;7989;51.198;6.676;2022-11-15T10:37:46;2.35;;;1.60;;
15776;SDS011;7989;51.198;6.676;2022-11-15T10:40:15;5.13;;;1.63;;
15776;SDS011;7989;51.198;6.676;2022-11-15T10:42:44;2.00;;;1.30;;
15776;SDS011;7989;51.198;6.676;2022-11-15T10:50:47;5.78;;;1.20;;
15776;SDS011;7989;51.198;6.676;2022-11-15T10:53:17;1.73;;;1.00;;
15776;SDS011;7989;51.198;6.676;2022-11-15T10:55:49;3.00;;;1.35;;
15776;SDS011;7989;51.198;6.676;2022-11-15T10:58:20;2.50;;;1.08;;
15776;SDS011;7989;51.198;6.676;2022-11-15T11:00:55;1.63;;;0.98;;
15776;SDS011;7989;51.198;6.676;2022-11-15T11:03:27;1.98;;;1.00;;
15776;SDS011;7989;51.198;6.676;2022-11-15T11:06:03;1.77;;;1.15;;
15776;SDS011;7989;51.198;6.676;2022-11-15T11:08:31;2.75;;;0.93;;
15776;SDS011;7989;51.198;6.676;2022-11-15T11:10:59;1.30;;;0.85;;
15776;SDS011;7989;51.198;6.676;2022-11-15T11:13:28;3.35;;;0.90;;
15776;SDS011;7989;51.198;6.676;2022-11-15T11:15:58;3.30;;;1.40;;
15776;SDS011;7989;51.198;6.676;2022-11-15T11:18:37;5.18;;;1.00;;
15776;SDS011;7989;51.198;6.676;2022-11-15T11:21:09;4.75;;;0.93;;
15776;SDS011;7989;51.198;6.676;2022-11-15T11:23:44;1.23;;;0.90;;
15776;SDS011;7989;51.198;6.676;2022-11-15T11:26:35;1.95;;;0.88;;
15776;SDS011;7989;51.198;6.676;2022-11-15T11:29:13;5.68;;;1.35;;
15776;SDS011;7989;51.198;6.676;2022-11-15T11:31:51;2.72;;;1.02;;
15776;SDS011;7989;51.198;6.676;2022-11-15T11:34:29;2.35;;;1.00;;
15776;SDS011;7989;51.198;6.676;2022-11-15T11:37:03;1.63;;;0.70;;
15776;SDS011;7989;51.198;6.676;2022-11-15T11:39:40;2.30;;;1.15;;
15776;SDS011;7989;51.198;6.676;2022-11-15T11:42:15;2.08;;;0.80;;
15776;SDS011;7989;51.198;6.676;2022-11-15T11:44:51;1.88;;;0.80;;
15776;SDS011;7989;51.198;6.676;2022-11-15T11:47:30;4.30;;;1.15;;
15776;SDS011;7989;51.198;6.676;2022-11-15T11:49:59;4.03;;;1.00;;
15776;SDS011;7989;51.198;6.676;2022-11-15T11:52:31;2.05;;;0.90;;
15776;SDS011;7989;51.198;6.676;2022-11-15T11:55:02;4.10;;;1.00;;
15776;SDS011;7989;51.198;6.676;2022-11-15T11:57:39;2.15;;;1.00;;
15776;SDS011;7989;51.198;6.676;2022-11-15T12:00:14;3.35;;;1.13;;
15776;SDS011;7989;51.198;6.676;2022-11-15T12:02:46;1.73;;;0.80;;
15776;SDS011;7989;51.198;6.676;2022-11-15T12:05:22;2.03;;;1.00;;
15776;SDS011;7989;51.198;6.676;2022-11-15T12:07:56;1.98;;;1.00;;
15776;SDS011;7989;51.198;6.676;2022-11-15T12:10:29;1.75;;;1.02;;
15776;SDS011;7989;51.198;6.676;2022-11-15T12:13:00;3.30;;;0.80;;
15776;SDS011;7989;51.198;6.676;2022-11-15T12:15:31;1.52;;;0.70;;
15776;SDS011;7989;51.198;6.676;2022-11-15T12:18:08;1.92;;;0.80;;
15776;SDS011;7989;51.198;6.676;2022-11-15T12:20:41;2.83;;;1.00;;
15776;SDS011;7989;51.198;6.676;2022-11-15T12:23:17;1.70;;;0.80;;
15776;SDS011;7989;51.198;6.676;2022-11-15T12:25:50;2.10;;;1.05;;
15776;SDS011;7989;51.198;6.676;2022-11-15T12:28:20;2.13;;;0.82;;
15776;SDS011;7989;51.198;6.676;2022-11-15T12:30:54;3.20;;;0.88;;
15776;SDS011;7989;51.198;6.676;2022-11-15T12:33:30;2.20;;;1.00;;
15776;SDS011;7989;51.198;6.676;2022-11-15T12:36:00;2.83;;;1.25;;
15776;SDS011;7989;51.198;6.676;2022-11-15T12:41:24;1.63;;;0.73;;
15776;SDS011;7989;51.198;6.676;2022-11-15T12:43:51;3.42;;;0.70;;
15776;SDS011;7989;51.198;6.676;2022-11-15T12:46:20;2.67;;;0.90;;
15776;SDS011;7989;51.198;6.676;2022-11-15T12:49:07;2.70;;;1.02;;
15776;SDS011;7989;51.198;6.676;2022-11-15T12:57:33;3.83;;;1.00;;
15776;SDS011;7989;51.198;6.676;2022-11-15T13:03:19;3.17;;;0.90;;
15776;SDS011;7989;51.198;6.676;2022-11-15T13:08:58;4.70;;;1.23;;
15776;SDS011;7989;51.198;6.676;2022-11-15T13:17:16;1.77;;;1.00;;
15776;SDS011;7989;51.198;6.676;2022-11-15T13:19:59;2.47;;;1.40;;
15776;SDS011;7989;51.198;6.676;2022-11-15T13:22:47;3.20;;;1.60;;
15776;SDS011;7989;51.198;6.676;2022-11-15T13:25:26;1.92;;;0.90;;
15776;SDS011;7989;51.198;6.676;2022-11-15T13:28:09;4.18;;;1.40;;
15776;SDS011;7989;51.198;6.676;2022-11-15T13:30:48;4.13;;;1.30;;
15776;SDS011;7989;51.198;6.676;2022-11-15T13:33:17;3.28;;;1.38;;
15776;SDS011;7989;51.198;6.676;2022-11-15T13:35:47;3.03;;;1.17;;
15776;SDS011;7989;51.198;6.676;2022-11-15T13:38:18;3.70;;;1.13;;
15776;SDS011;7989;51.198;6.676;2022-11-15T13:40:52;3.60;;;1.13;;
15776;SDS011;7989;51.198;6.676;2022-11-15T13:43:24;2.20;;;1.30;;
15776;SDS011;7989;51.198;6.676;2022-11-15T13:46:04;3.65;;;1.20;;
15776;SDS011;7989;51.198;6.676;2022-11-15T13:48:36;1.75;;;0.93;;
15776;SDS011;7989;51.198;6.676;2022-11-15T13:51:04;5.03;;;1.48;;
15776;SDS011;7989;51.198;6.676;2022-11-15T13:53:37;4.22;;;1.30;;
15776;SDS011;7989;51.198;6.676;2022-11-15T13:56:08;2.65;;;1.10;;
15776;SDS011;7989;51.198;6.676;2022-11-15T13:58:37;5.88;;;1.50;;
15776;SDS011;7989;51.198;6.676;2022-11-15T14:01:05;4.13;;;1.30;;
15776;SDS011;7989;51.198;6.676;2022-11-15T14:03:32;2.47;;;1.17;;
15776;SDS011;7989;51.198;6.676;2022-11-15T14:06:05;2.50;;;1.10;;
15776;SDS011;7989;51.198;6.676;2022-11-15T14:08:37;2.05;;;1.00;;
15776;SDS011;7989;51.198;6.676;2022-11-15T14:11:05;4.43;;;1.58;;
15776;SDS011;7989;51.198;6.676;2022-11-15T14:13:35;4.03;;;1.33;;
15776;SDS011;7989;51.198;6.676;2022-11-15T14:16:15;2.40;;;1.45;;
15776;SDS011;7989;51.198;6.676;2022-11-15T14:18:45;2.15;;;1.25;;
15776;SDS011;7989;51.198;6.676;2022-11-15T14:21:13;2.45;;;1.33;;
15776;SDS011;7989;51.198;6.676;2022-11-15T14:23:40;3.38;;;1.70;;
15776;SDS011;7989;51.198;6.676;2022-11-15T14:26:11;3.05;;;1.60;;
15776;SDS011;7989;51.198;6.676;2022-11-15T14:28:54;2.05;;;1.65;;
15776;SDS011;7989;51.198;6.676;2022-11-15T14:31:21;4.88;;;1.50;;
15776;SDS011;7989;51.198;6.676;2022-11-15T14:33:48;2.53;;;1.92;;
15776;SDS011;7989;51.198;6.676;2022-11-15T14:36:16;4.20;;;2.10;;
15776;SDS011;7989;51.198;6.676;2022-11-15T14:38:44;4.95;;;2.00;;
15776;SDS011;7989;51.198;6.676;2022-11-15T14:41:18;3.20;;;1.70;;
15776;SDS011;7989;51.198;6.676;2022-11-15T14:43:46;3.15;;;1.80;;
15776;SDS011;7989;51.198;6.676;2022-11-15T14:46:15;3.03;;;2.08;;
15776;SDS011;7989;51.198;6.676;2022-11-15T14:48:42;3.10;;;1.92;;
15776;SDS011;7989;51.198;6.676;2022-11-15T14:51:10;2.60;;;1.95;;
15776;SDS011;7989;51.198;6.676;2022-11-15T14:53:38;2.65;;;1.90;;
15776;SDS011;7989;51.198;6.676;2022-11-15T14:56:05;4.10;;;2.08;;
15776;SDS011;7989;51.198;6.676;2022-11-15T14:58:32;3.33;;;2.20;;
15776;SDS011;7989;51.198;6.676;2022-11-15T15:00:59;3.45;;;2.17;;
15776;SDS011;7989;51.198;6.676;2022-11-15T15:03:29;3.95;;;2.22;;
15776;SDS011;7989;51.198;6.676;2022-11-15T15:05:56;4.18;;;2.15;;
15776;SDS011;7989;51.198;6.676;2022-11-15T15:08:23;5.13;;;2.33;;
15776;SDS011;7989;51.198;6.676;2022-11-15T15:10:50;4.22;;;1.90;;
15776;SDS011;7989;51.198;6.676;2022-11-15T15:13:17;5.40;;;2.45;;
15776;SDS011;7989;51.198;6.676;2022-11-15T15:15:45;3.33;;;2.55;;
15776;SDS011;7989;51.198;6.676;2022-11-15T15:18:12;2.90;;;2.50;;
15776;SDS011;7989;51.198;6.676;2022-11-15T15:20:41;4.18;;;2.30;;
15776;SDS011;7989;51.198;6.676;2022-11-15T15:23:13;3.58;;;2.10;;
15776;SDS011;7989;51.198;6.676;2022-11-15T15:25:42;3.03;;;2.30;;
15776;SDS011;7989;51.198;6.676;2022-11-15T15:28:10;4.35;;;2.42;;
15776;SDS011;7989;51.198;6.676;2022-11-15T15:30:37;2.78;;;1.98;;
15776;SDS011;7989;51.198;6.676;2022-11-15T15:33:04;3.63;;;2.10;;
15776;SDS011;7989;51.198;6.676;2022-11-15T15:35:32;4.50;;;2.45;;
15776;SDS011;7989;51.198;6.676;2022-11-15T15:38:01;3.97;;;2.45;;
15776;SDS011;7989;51.198;6.676;2022-11-15T15:40:29;2.72;;;1.92;;
15776;SDS011;7989;51.198;6.676;2022-11-15T15:42:57;4.15;;;3.20;;
15776;SDS011;7989;51.198;6.676;2022-11-15T15:45:24;4.30;;;2.78;;
15776;SDS011;7989;51.198;6.676;2022-11-15T15:47:52;3.70;;;2.53;;
15776;SDS011;7989;51.198;6.676;2022-11-15T15:50:21;4.10;;;2.88;;
15776;SDS011;7989;51.198;6.676;2022-11-15T15:52:50;4.35;;;2.25;;